createdAt,value
2016-07-23T00:00:30.980Z,60.03
2016-07-23T00:01:31.175Z,59.83
2016-07-23T00:02:30.971Z,60.12
2016-07-23T00:03:30.971Z,60.12
2016-07-23T00:04:30.969Z,60.89
2016-07-23T00:05:30.967Z,60.41
2016-07-23T00:06:30.963Z,60.5
2016-07-23T00:07:30.961Z,60.7
2016-07-23T00:08:30.962Z,60.89
2016-07-23T00:09:30.959Z,61.18
2016-07-23T00:10:30.960Z,60.89
2016-07-23T00:11:30.953Z,60.99
2016-07-23T00:12:30.955Z,61.08
2016-07-23T00:13:30.958Z,61.56
2016-07-23T00:14:30.959Z,61.66
2016-07-23T00:15:30.949Z,61.56
2016-07-23T00:16:30.945Z,61.27
2016-07-23T00:17:30.945Z,60.99
2016-07-23T00:18:30.942Z,61.18
2016-07-23T00:19:30.942Z,61.08
2016-07-23T00:20:30.935Z,61.08
2016-07-23T00:21:30.939Z,61.75
2016-07-23T00:22:30.934Z,61.75
2016-07-23T00:23:30.937Z,61.63
2016-07-23T00:24:30.930Z,61.34
2016-07-23T00:25:30.943Z,61.34
2016-07-23T00:26:30.924Z,61.82
2016-07-23T00:27:30.931Z,61.82
2016-07-23T00:28:30.922Z,62.49
2016-07-23T00:29:30.919Z,62.13
2016-07-23T00:30:30.929Z,62.39
2016-07-23T00:31:30.920Z,62.96
2016-07-23T00:32:30.917Z,62.87
2016-07-23T00:33:30.917Z,62.77
2016-07-23T00:34:30.915Z,62.77
2016-07-23T00:35:30.914Z,62.96
2016-07-23T00:36:30.908Z,63.16
2016-07-23T00:37:30.908Z,62.52
2016-07-23T00:38:30.908Z,63
2016-07-23T00:39:30.904Z,62.96
2016-07-23T00:40:30.903Z,62.68
2016-07-23T00:41:30.900Z,63.06
2016-07-23T00:42:30.898Z,62.96
2016-07-23T00:43:31.301Z,62.77
2016-07-23T00:44:32.127Z,62.87
2016-07-23T00:45:30.893Z,62.87
2016-07-23T00:46:30.897Z,63.06
2016-07-23T00:47:30.891Z,62.87
2016-07-23T00:48:30.892Z,63.54
2016-07-23T00:49:30.886Z,63.35
2016-07-23T00:50:30.885Z,63.26
2016-07-23T00:51:31.140Z,63.45
2016-07-23T00:52:30.886Z,63.35
2016-07-23T00:53:30.881Z,63.54
2016-07-23T00:54:31.328Z,64.12
2016-07-23T00:55:30.875Z,64.02
2016-07-23T00:56:30.876Z,63.73
2016-07-23T00:57:30.872Z,64.02
2016-07-23T00:58:31.135Z,64.02
2016-07-23T00:59:30.893Z,63.92
2016-07-23T01:00:30.870Z,63.92
2016-07-23T01:01:30.868Z,63.83
2016-07-23T01:02:30.864Z,64.02
2016-07-23T01:03:30.863Z,63.92
2016-07-23T01:04:30.860Z,63.83
2016-07-23T01:05:30.856Z,64.22
2016-07-23T01:06:30.855Z,64.5
2016-07-23T01:07:30.858Z,64.22
2016-07-23T01:08:30.862Z,64.59
2016-07-23T01:09:31.253Z,64.89
2016-07-23T01:10:30.850Z,65.36
2016-07-23T01:11:30.852Z,65.26
2016-07-23T01:12:31.246Z,65.26
2016-07-23T01:13:30.847Z,65.26
2016-07-23T01:14:30.842Z,64.98
2016-07-23T01:15:30.840Z,65.33
2016-07-23T01:16:31.391Z,65.23
2016-07-23T01:18:30.838Z,65.05
2016-07-23T01:19:30.829Z,65.23
2016-07-23T01:20:30.836Z,65.71
2016-07-23T01:21:30.833Z,65.42
2016-07-23T01:22:30.928Z,65.62
2016-07-23T01:23:30.822Z,66
2016-07-23T01:24:30.822Z,66
2016-07-23T01:25:30.822Z,65.81
2016-07-23T01:26:30.818Z,66
2016-07-23T01:27:30.813Z,65.91
2016-07-23T01:28:30.812Z,66.29
2016-07-23T01:29:30.813Z,66.86
2016-07-23T01:30:30.812Z,66.67
2016-07-23T01:31:30.807Z,66.86
2016-07-23T01:32:30.807Z,66.96
2016-07-23T01:33:30.814Z,66.38
2016-07-23T01:34:30.804Z,66.38
2016-07-23T01:35:30.801Z,67.15
2016-07-23T01:36:30.795Z,67.25
2016-07-23T01:37:30.797Z,67.34
2016-07-23T01:38:30.791Z,67.15
2016-07-23T01:40:30.788Z,67.05
2016-07-23T01:41:30.786Z,67.82
2016-07-23T01:42:30.794Z,67.82
2016-07-23T01:43:30.780Z,67.34
2016-07-23T01:44:30.775Z,67.72
2016-07-23T01:45:30.779Z,67.72
2016-07-23T01:46:30.775Z,67.25
2016-07-23T01:47:30.771Z,67.44
2016-07-23T01:48:30.771Z,67.44
2016-07-23T01:49:30.767Z,67.69
2016-07-23T01:50:30.768Z,67.41
2016-07-23T01:51:30.765Z,67.72
2016-07-23T01:52:30.764Z,67.31
2016-07-23T01:53:30.762Z,67.79
2016-07-23T01:54:30.756Z,67.21
2016-07-23T01:55:30.755Z,67.69
2016-07-23T01:56:30.751Z,67.88
2016-07-23T01:57:30.752Z,68.07
2016-07-23T01:58:30.748Z,68.36
2016-07-23T01:59:30.743Z,68.46
2016-07-23T02:00:30.740Z,68.46
2016-07-23T02:01:30.821Z,68.46
2016-07-23T02:02:30.780Z,68.74
2016-07-23T02:03:30.736Z,68.65
2016-07-23T02:04:30.734Z,68.74
2016-07-23T02:05:30.735Z,68.36
2016-07-23T02:06:30.725Z,69.03
2016-07-23T02:07:30.958Z,68.84
2016-07-23T02:08:30.725Z,68.74
2016-07-23T02:09:30.719Z,68.94
2016-07-23T02:10:32.119Z,69.23
2016-07-23T02:12:31.141Z,69.89
2016-07-23T02:13:30.716Z,69.99
2016-07-23T02:14:30.712Z,70.18
2016-07-23T02:15:30.712Z,69.89
2016-07-23T02:16:30.709Z,69.7
2016-07-23T02:17:30.707Z,69.89
2016-07-23T02:18:30.704Z,70.47
2016-07-23T02:19:30.695Z,70.56
2016-07-23T02:20:30.694Z,70.56
2016-07-23T02:21:30.688Z,70.47
2016-07-23T02:22:30.693Z,70.28
2016-07-23T02:23:30.687Z,70.47
2016-07-23T02:24:30.686Z,70.43
2016-07-23T02:25:30.837Z,70.34
2016-07-23T02:27:30.930Z,71.48
2016-07-23T02:28:30.672Z,71.39
2016-07-23T02:29:31.121Z,71.39
2016-07-23T02:30:30.667Z,71.3
2016-07-23T02:31:31.362Z,71.39
2016-07-23T02:32:30.663Z,71.68
2016-07-23T02:33:30.662Z,71.71
2016-07-23T02:34:30.665Z,71.68
2016-07-23T02:35:45.573Z,71.68
2016-07-23T02:36:30.655Z,71.68
2016-07-23T02:37:30.650Z,71.77
2016-07-23T02:38:30.852Z,71.3
2016-07-23T02:39:30.652Z,71.58
2016-07-23T02:40:30.645Z,71.58
2016-07-23T02:41:30.640Z,71.87
2016-07-23T02:42:30.640Z,71.87
2016-07-23T02:43:30.635Z,72.16
2016-07-23T02:44:30.641Z,72.44
2016-07-23T02:45:30.636Z,72.73
2016-07-23T02:46:31.322Z,72.54
2016-07-23T02:47:31.231Z,72.63
2016-07-23T02:48:30.625Z,72.83
2016-07-23T02:49:31.836Z,72.73
2016-07-23T02:50:30.619Z,72.83
2016-07-23T02:51:30.617Z,73.4
2016-07-23T02:52:30.614Z,73.59
2016-07-23T02:53:30.609Z,73.4
2016-07-23T02:54:30.608Z,73.4
2016-07-23T02:55:30.602Z,73.5
2016-07-23T02:56:30.603Z,73.69
2016-07-23T02:57:30.597Z,73.94
2016-07-23T02:58:30.600Z,73.5
2016-07-23T02:59:30.596Z,74.16
2016-07-23T03:00:30.594Z,73.97
2016-07-23T03:01:30.585Z,74.13
2016-07-23T03:02:30.585Z,74.13
2016-07-23T03:03:30.583Z,74.13
2016-07-23T03:04:30.583Z,73.94
2016-07-23T03:05:30.588Z,74.22
2016-07-23T03:06:30.573Z,74.13
2016-07-23T03:07:30.569Z,73.94
2016-07-23T03:08:30.570Z,74.8
2016-07-23T03:09:30.564Z,74.41
2016-07-23T03:10:30.566Z,74.7
2016-07-23T03:11:30.560Z,74.9
2016-07-23T03:12:30.555Z,74.7
2016-07-23T03:13:30.557Z,75.18
2016-07-23T03:14:30.550Z,74.61
2016-07-23T03:15:30.552Z,75.09
2016-07-23T03:16:30.544Z,74.61
2016-07-23T03:17:30.546Z,74.99
2016-07-23T03:18:30.539Z,74.9
2016-07-23T03:19:32.034Z,74.8
2016-07-23T03:20:30.535Z,74.8
2016-07-23T03:21:31.799Z,74.99
2016-07-23T03:22:30.914Z,75.18
2016-07-23T03:23:30.524Z,75.37
2016-07-23T03:24:30.527Z,75.37
2016-07-23T03:25:30.519Z,75.56
2016-07-23T03:26:30.521Z,75.37
2016-07-23T03:27:30.514Z,74.8
2016-07-23T03:28:31.127Z,75.76
2016-07-23T03:29:32.043Z,75.56
2016-07-23T03:30:30.506Z,75.56
2016-07-23T03:31:30.503Z,75.56
2016-07-23T03:32:31.410Z,75.37
2016-07-23T03:33:30.497Z,75.27
2016-07-23T03:34:30.497Z,76.04
2016-07-23T03:35:30.784Z,76.42
2016-07-23T03:36:30.488Z,76.14
2016-07-23T03:37:30.488Z,76.33
2016-07-23T03:38:30.481Z,76.04
2016-07-23T03:39:30.483Z,76.23
2016-07-23T03:40:30.477Z,76.14
2016-07-23T03:41:30.475Z,76.04
2016-07-23T03:42:30.475Z,76.14
2016-07-23T03:43:30.468Z,76.14
2016-07-23T03:44:31.564Z,76.14
2016-07-23T03:45:30.468Z,76.23
2016-07-23T03:46:30.457Z,76.62
2016-07-23T03:47:30.460Z,76.23
2016-07-23T03:48:30.452Z,76.04
2016-07-23T03:49:30.702Z,76.27
2016-07-23T03:50:30.455Z,76.37
2016-07-23T03:51:30.450Z,76.46
2016-07-23T03:52:31.398Z,76.08
2016-07-23T03:53:30.440Z,76.37
2016-07-23T03:54:31.340Z,76.46
2016-07-23T03:55:30.440Z,75.51
2016-07-23T03:56:30.431Z,75.07
2016-07-23T03:57:30.479Z,74.97
2016-07-23T03:58:30.442Z,74.58
2016-07-23T03:59:30.428Z,74.15
2016-07-23T04:00:30.421Z,73.76
2016-07-23T04:01:30.421Z,73.13
2016-07-23T04:02:30.418Z,72.74
2016-07-23T04:03:30.419Z,72.11
2016-07-23T04:04:30.421Z,71.34
2016-07-23T04:05:30.415Z,71.19
2016-07-23T04:06:30.412Z,70.7
2016-07-23T04:07:30.417Z,69.84
2016-07-23T04:08:30.408Z,69.26
2016-07-23T04:09:30.417Z,69.2
2016-07-23T04:10:30.413Z,68.15
2016-07-23T04:11:30.406Z,67.96
2016-07-23T04:12:30.408Z,67.32
2016-07-23T04:13:30.406Z,66.93
2016-07-23T04:14:30.406Z,66.55
2016-07-23T04:15:30.404Z,65.81
2016-07-23T04:16:30.405Z,66
2016-07-23T04:17:30.410Z,65.05
2016-07-23T04:18:30.408Z,64.5
2016-07-23T04:19:30.409Z,64.12
2016-07-23T04:20:30.411Z,63.67
2016-07-23T04:21:30.408Z,62.64
2016-07-23T04:22:30.419Z,61.97
2016-07-23T04:23:30.411Z,60.27
2016-07-23T04:24:30.416Z,59.88
2016-07-23T04:25:30.418Z,59.33
2016-07-23T04:26:30.422Z,59.14
2016-07-23T04:27:30.426Z,58.65
2016-07-23T04:28:30.423Z,57.92
2016-07-23T04:29:30.425Z,57.14
2016-07-23T04:30:30.528Z,56.76
2016-07-23T04:31:30.436Z,56.4
2016-07-23T04:32:30.435Z,56.01
2016-07-23T04:33:30.436Z,55.63
2016-07-23T04:34:30.445Z,54.79
2016-07-23T04:35:30.449Z,53.05
2016-07-23T04:36:30.453Z,53.25
2016-07-23T04:37:30.931Z,53.63
2016-07-23T04:38:30.784Z,53.63
2016-07-23T04:39:30.921Z,53.05
2016-07-23T04:40:31.009Z,52.59
2016-07-23T04:41:30.725Z,52.04
2016-07-23T04:42:31.209Z,51.95
2016-07-23T04:43:30.484Z,51.29
2016-07-23T04:44:30.491Z,50.91
2016-07-23T04:45:30.491Z,49.68
2016-07-23T04:46:31.936Z,49.97
2016-07-23T04:47:30.504Z,49.51
2016-07-23T04:48:30.515Z,49.41
2016-07-23T04:49:30.521Z,48.37
2016-07-23T04:50:30.526Z,48.27
2016-07-23T04:51:31.189Z,47.91
2016-07-23T04:52:30.536Z,47.26
2016-07-23T04:53:30.545Z,46.77
2016-07-23T04:54:30.559Z,45.71
2016-07-23T04:55:30.557Z,45.61
2016-07-23T04:56:30.566Z,45.22
2016-07-23T04:57:30.573Z,44.67
2016-07-23T04:58:30.576Z,44.18
2016-07-23T04:59:30.584Z,43.82
2016-07-23T05:00:30.589Z,43.99
2016-07-23T05:01:45.520Z,43.6
2016-07-23T05:02:30.604Z,43.41
2016-07-23T05:03:30.618Z,42.94
2016-07-23T05:04:30.628Z,42.65
2016-07-23T05:05:30.828Z,42.85
2016-07-23T05:06:30.638Z,42.75
2016-07-23T05:07:31.099Z,42.17
2016-07-23T05:08:30.659Z,41.8
2016-07-23T05:09:30.813Z,41.53
2016-07-23T05:10:30.680Z,41.43
2016-07-23T05:11:31.881Z,40.87
2016-07-23T05:12:31.295Z,40.31
2016-07-23T05:13:30.697Z,40.11
2016-07-23T05:14:30.707Z,39.75
2016-07-23T05:15:30.713Z,38.89
2016-07-23T05:16:30.722Z,38.7
2016-07-23T05:17:30.736Z,38.6
2016-07-23T05:18:30.740Z,38.13
2016-07-23T05:19:30.754Z,37.76
2016-07-23T05:20:30.765Z,37.39
2016-07-23T05:21:30.771Z,36.33
2016-07-23T05:22:30.786Z,36.16
2016-07-23T05:23:30.796Z,35.2
2016-07-23T05:24:30.803Z,34.91
2016-07-23T05:25:30.813Z,34.99
2016-07-23T05:26:30.826Z,35.18
2016-07-23T05:27:30.831Z,35.18
2016-07-23T05:28:30.848Z,34.89
2016-07-23T05:29:30.858Z,34.83
2016-07-23T05:30:30.878Z,34.63
2016-07-23T05:31:30.873Z,34.44
2016-07-23T05:32:30.884Z,34.16
2016-07-23T05:33:30.895Z,33.5
2016-07-23T05:34:30.909Z,33.22
2016-07-23T05:35:30.917Z,33.04
2016-07-23T05:36:30.933Z,32.46
2016-07-23T05:37:30.943Z,31.41
2016-07-23T05:38:30.954Z,31.21
2016-07-23T05:39:30.970Z,31.31
2016-07-23T05:40:30.984Z,31.21
2016-07-23T05:41:30.987Z,30.25
2016-07-23T05:42:30.999Z,30.64
2016-07-23T05:43:31.011Z,30.25
2016-07-23T05:44:31.023Z,30.13
2016-07-23T05:45:31.034Z,29.93
2016-07-23T05:46:31.047Z,30.3
2016-07-23T05:47:31.066Z,30.59
2016-07-23T05:48:31.071Z,30.3
2016-07-23T05:49:31.084Z,30.3
2016-07-23T05:50:31.099Z,30
2016-07-23T05:51:31.109Z,30.3
2016-07-23T05:52:31.127Z,30.4
2016-07-23T05:53:31.133Z,30.49
2016-07-23T05:54:31.163Z,30.3
2016-07-23T05:55:32.677Z,30.2
2016-07-23T05:56:31.171Z,30.41
2016-07-23T05:57:31.181Z,30.13
2016-07-23T05:58:31.198Z,29.64
2016-07-23T05:59:31.446Z,29.56
2016-07-23T06:00:31.227Z,29.55
2016-07-23T06:01:31.580Z,29.45
2016-07-23T06:02:31.565Z,29.94
2016-07-23T06:03:31.311Z,30.33
2016-07-23T06:04:31.272Z,30.33
2016-07-23T06:05:32.082Z,30.54
2016-07-23T06:06:31.463Z,29.75
2016-07-23T06:07:31.310Z,29.56
2016-07-23T06:08:31.317Z,28.89
2016-07-23T06:09:31.334Z,28.77
2016-07-23T06:10:31.824Z,29.73
2016-07-23T06:11:31.359Z,29.52
2016-07-23T06:12:31.375Z,30.2
2016-07-23T06:13:31.382Z,30.1
2016-07-23T06:14:31.394Z,29.53
2016-07-23T06:15:31.407Z,29.94
2016-07-23T06:16:31.423Z,30.04
2016-07-23T06:17:31.438Z,29.66
2016-07-23T06:18:31.449Z,29.95
2016-07-23T06:19:31.465Z,29.28
2016-07-23T06:20:32.726Z,28.82
2016-07-23T06:21:31.541Z,28.82
2016-07-23T06:22:31.500Z,28.74
2016-07-23T06:23:31.564Z,27.95
2016-07-23T06:24:31.632Z,28.13
2016-07-23T06:25:31.544Z,28.05
2016-07-23T06:26:31.757Z,28.13
2016-07-23T06:27:31.573Z,28.13
2016-07-23T06:28:31.599Z,27.94
2016-07-23T06:29:31.600Z,27.95
2016-07-23T06:30:31.812Z,27.56
2016-07-23T06:31:32.082Z,26.69
2016-07-23T06:32:31.645Z,26.9
2016-07-23T06:33:31.655Z,26.9
2016-07-23T06:34:31.675Z,25.04
2016-07-23T06:35:31.690Z,25.43
2016-07-23T06:36:31.706Z,26.4
2016-07-23T06:37:31.731Z,26.4
2016-07-23T06:38:31.735Z,26.2
2016-07-23T06:39:31.753Z,25.81
2016-07-23T06:40:31.764Z,26.28
2016-07-23T06:41:31.782Z,26.07
2016-07-23T06:42:31.799Z,26.17
2016-07-23T06:43:31.816Z,26.76
2016-07-23T06:44:31.825Z,26.95
2016-07-23T06:45:31.849Z,26.67
2016-07-23T06:46:31.861Z,26.87
2016-07-23T06:47:31.880Z,26.21
2016-07-23T06:48:31.893Z,25.44
2016-07-23T06:49:31.909Z,25.54
2016-07-23T06:50:31.924Z,25.46
2016-07-23T06:51:31.938Z,24.98
2016-07-23T06:52:31.955Z,24.69
2016-07-23T06:53:31.971Z,24.8
2016-07-23T06:54:31.994Z,24.32
2016-07-23T06:55:32.004Z,24.62
2016-07-23T06:56:32.028Z,23.63
2016-07-23T06:57:32.044Z,23.91
2016-07-23T06:58:32.057Z,24.4
2016-07-23T06:59:32.075Z,24.29
2016-07-23T07:00:32.089Z,24.38
2016-07-23T07:01:32.111Z,24.29
2016-07-23T07:02:32.126Z,24.36
2016-07-23T07:03:32.138Z,24.93
2016-07-23T07:04:32.155Z,25.13
2016-07-23T07:05:32.172Z,25.52
2016-07-23T07:06:32.188Z,25.92
2016-07-23T07:07:32.200Z,25.92
2016-07-23T07:08:32.218Z,26.29
2016-07-23T07:09:32.233Z,26.5
2016-07-23T07:10:32.245Z,26.5
2016-07-23T07:11:32.266Z,26.98
2016-07-23T07:12:32.275Z,26.87
2016-07-23T07:13:32.293Z,27.07
2016-07-23T07:14:33.825Z,26.87
2016-07-23T07:15:32.321Z,26.97
2016-07-23T07:16:32.332Z,26.78
2016-07-23T07:17:32.348Z,26.87
2016-07-23T07:18:32.357Z,26.78
2016-07-23T07:19:32.373Z,27.07
2016-07-23T07:20:32.491Z,26.78
2016-07-23T07:21:32.414Z,27.36
2016-07-23T07:22:32.429Z,27.07
2016-07-23T07:23:32.429Z,26.87
2016-07-23T07:24:32.440Z,26.87
2016-07-23T07:25:32.545Z,26.87
2016-07-23T07:26:33.458Z,26.97
2016-07-23T07:27:32.484Z,27.17
2016-07-23T07:28:33.190Z,27.15
2016-07-23T07:29:32.509Z,27.15
2016-07-23T07:30:32.626Z,27.06
2016-07-23T07:31:32.537Z,27.15
2016-07-23T07:32:32.553Z,27.64
2016-07-23T07:33:32.566Z,27.94
2016-07-23T07:34:32.581Z,27.84
2016-07-23T07:35:32.589Z,27.92
2016-07-23T07:36:32.602Z,28.12
2016-07-23T07:37:32.617Z,28.12
2016-07-23T07:38:32.627Z,28.11
2016-07-23T07:39:32.651Z,28.3
2016-07-23T07:40:32.809Z,28.2
2016-07-23T07:41:32.665Z,28.3
2016-07-23T07:42:32.892Z,28.89
2016-07-23T07:43:32.795Z,28.89
2016-07-23T07:44:32.708Z,29.27
2016-07-23T07:45:32.725Z,29.27
2016-07-23T07:46:32.730Z,29.25
2016-07-23T07:47:33.292Z,29.35
2016-07-23T07:48:33.406Z,29.45
2016-07-23T07:49:32.920Z,29.74
2016-07-23T07:50:47.700Z,29.55
2016-07-23T07:51:33.091Z,29.93
2016-07-23T07:52:47.724Z,30.22
2016-07-23T07:53:32.812Z,30.4
2016-07-23T07:54:32.825Z,30.58
2016-07-23T07:55:32.836Z,30.68
2016-07-23T07:56:32.851Z,30.97
2016-07-23T07:57:32.866Z,31.18
2016-07-23T07:58:32.874Z,30.88
2016-07-23T07:59:32.889Z,30.22
2016-07-23T08:00:32.897Z,30.33
2016-07-23T08:01:32.913Z,29.55
2016-07-23T08:02:32.921Z,30.12
2016-07-23T08:03:32.932Z,29.83
2016-07-23T08:04:32.946Z,29.93
2016-07-23T08:05:32.958Z,29.93
2016-07-23T08:06:32.973Z,30.61
2016-07-23T08:07:32.981Z,30.61
2016-07-23T08:08:33.012Z,30.44
2016-07-23T08:09:33.009Z,29.97
2016-07-23T08:10:33.025Z,29.48
2016-07-23T08:11:33.038Z,29.38
2016-07-23T08:12:33.049Z,29
2016-07-23T08:13:33.071Z,28.92
2016-07-23T08:14:33.082Z,28.63
2016-07-23T08:15:33.094Z,28.15
2016-07-23T08:16:33.111Z,28.26
2016-07-23T08:17:33.126Z,27.29
2016-07-23T08:18:33.137Z,27.4
2016-07-23T08:19:33.158Z,27.42
2016-07-23T08:20:33.168Z,26.73
2016-07-23T08:21:33.186Z,26.85
2016-07-23T08:22:33.200Z,26.37
2016-07-23T08:23:33.214Z,25.1
2016-07-23T08:24:33.234Z,25.1
2016-07-23T08:25:33.251Z,25.31
2016-07-23T08:26:33.266Z,24.41
2016-07-23T08:27:33.287Z,24.81
2016-07-23T08:28:33.301Z,24.51
2016-07-23T08:29:33.318Z,24.22
2016-07-23T08:30:33.438Z,24.9
2016-07-23T08:31:33.352Z,24.4
2016-07-23T08:32:33.368Z,24.29
2016-07-23T08:33:33.826Z,23.99
2016-07-23T08:34:34.530Z,24.47
2016-07-23T08:35:33.676Z,24.37
2016-07-23T08:36:33.439Z,24.36
2016-07-23T08:37:33.453Z,24.76
2016-07-23T08:38:33.945Z,24.27
2016-07-23T08:39:33.486Z,24.65
2016-07-23T08:40:33.500Z,25.54
2016-07-23T08:41:34.887Z,25.15
2016-07-23T08:42:35.426Z,25.54
2016-07-23T08:43:33.554Z,24.95
2016-07-23T08:44:33.574Z,25.43
2016-07-23T08:45:34.436Z,26.11
2016-07-23T08:46:33.603Z,25.44
2016-07-23T08:47:33.622Z,25.72
2016-07-23T08:48:33.632Z,25.32
2016-07-23T08:49:33.655Z,26.4
2016-07-23T08:50:33.666Z,25.81
2016-07-23T08:51:33.684Z,25.61
2016-07-23T08:52:33.703Z,26.29
2016-07-23T08:53:33.719Z,26.2
2016-07-23T08:54:33.733Z,26.29
2016-07-23T08:55:33.751Z,26.4
2016-07-23T08:56:34.412Z,26.28
2016-07-23T08:58:34.749Z,26.27
2016-07-23T08:59:48.736Z,26.76
2016-07-23T09:01:33.841Z,26.44
2016-07-23T09:02:33.850Z,26.83
2016-07-23T09:03:33.869Z,28
2016-07-23T09:04:33.882Z,28
2016-07-23T09:05:33.892Z,28.18
2016-07-23T09:06:34.907Z,28.65
2016-07-23T09:07:33.915Z,29.13
2016-07-23T09:08:34.584Z,28.92
2016-07-23T09:10:33.956Z,29.49
2016-07-23T09:11:33.961Z,29.79
2016-07-23T09:12:33.973Z,30.47
2016-07-23T09:13:33.987Z,30.57
2016-07-23T09:14:33.997Z,29.98
2016-07-23T09:15:34.011Z,30.47
2016-07-23T09:16:34.017Z,30.66
2016-07-23T09:17:34.025Z,30.94
2016-07-23T09:18:34.043Z,31.13
2016-07-23T09:19:34.050Z,31.04
2016-07-23T09:20:34.058Z,31.13
2016-07-23T09:21:34.075Z,30.94
2016-07-23T09:22:34.080Z,31.13
2016-07-23T09:23:34.091Z,30.84
2016-07-23T09:24:34.097Z,30.57
2016-07-23T09:25:34.110Z,30.18
2016-07-23T09:26:34.119Z,30.27
2016-07-23T09:27:34.140Z,30.37
2016-07-23T09:28:34.133Z,30.65
2016-07-23T09:29:34.148Z,31.04
2016-07-23T09:30:34.154Z,30.65
2016-07-23T09:31:34.162Z,31.13
2016-07-23T09:32:34.870Z,31.12
2016-07-23T09:33:34.184Z,29.96
2016-07-23T09:34:34.195Z,30.34
2016-07-23T09:35:34.204Z,30.24
2016-07-23T09:36:34.206Z,30.54
2016-07-23T09:37:34.217Z,30.05
2016-07-23T09:38:34.228Z,31.2
2016-07-23T09:39:34.236Z,31.2
2016-07-23T09:40:34.454Z,31.59
2016-07-23T09:41:34.256Z,31.49
2016-07-23T09:42:34.264Z,32.18
2016-07-23T09:43:34.272Z,31.79
2016-07-23T09:44:34.283Z,31.88
2016-07-23T09:45:34.290Z,31.49
2016-07-23T09:46:34.302Z,31.77
2016-07-23T09:47:34.310Z,31.88
2016-07-23T09:48:34.326Z,31.69
2016-07-23T09:49:34.326Z,31.79
2016-07-23T09:50:35.855Z,31.59
2016-07-23T09:51:36.044Z,31.79
2016-07-23T09:52:34.350Z,32.18
2016-07-23T09:53:34.359Z,32.18
2016-07-23T09:54:34.371Z,31.69
2016-07-23T09:55:34.400Z,31.7
2016-07-23T09:56:34.595Z,31.59
2016-07-23T09:57:34.390Z,31.69
2016-07-23T09:58:34.406Z,31.79
2016-07-23T09:59:34.411Z,31.4
2016-07-23T10:00:35.821Z,31.01
2016-07-23T10:01:34.657Z,31.28
2016-07-23T10:02:35.398Z,31.48
2016-07-23T10:03:34.441Z,31.48
2016-07-23T10:04:34.704Z,31.01
2016-07-23T10:05:34.463Z,31.2
2016-07-23T10:06:34.471Z,31.02
2016-07-23T10:07:34.586Z,31.22
2016-07-23T10:08:34.490Z,31.31
2016-07-23T10:09:34.493Z,31.12
2016-07-23T10:10:34.510Z,31.22
2016-07-23T10:11:34.510Z,31.02
2016-07-23T10:12:34.515Z,30.74
2016-07-23T10:13:34.527Z,30.35
2016-07-23T10:15:34.951Z,30.18
2016-07-23T10:16:34.604Z,30.37
2016-07-23T10:17:49.783Z,29.88
2016-07-23T10:18:34.574Z,29.79
2016-07-23T10:19:34.583Z,30.08
2016-07-23T10:20:34.592Z,29.98
2016-07-23T10:21:34.754Z,29.69
2016-07-23T10:22:34.605Z,29.88
2016-07-23T10:23:34.615Z,29.79
2016-07-23T10:24:34.634Z,29.59
2016-07-23T10:25:34.636Z,29.49
2016-07-23T10:26:35.093Z,29.59
2016-07-23T10:27:34.655Z,29.98
2016-07-23T10:28:34.662Z,30.27
2016-07-23T10:29:35.022Z,29.88
2016-07-23T10:30:34.726Z,29.49
2016-07-23T10:31:34.703Z,29.47
2016-07-23T10:32:34.702Z,29.77
2016-07-23T10:33:34.706Z,30.06
2016-07-23T10:34:34.717Z,29.86
2016-07-23T10:35:35.435Z,29.39
2016-07-23T10:36:34.738Z,29.49
2016-07-23T10:37:34.744Z,29.59
2016-07-23T10:38:34.765Z,29.39
2016-07-23T10:39:34.759Z,29.6
2016-07-23T10:40:34.773Z,29.5
2016-07-23T10:41:34.779Z,29.8
2016-07-23T10:42:34.791Z,30.09
2016-07-23T10:43:34.798Z,30.09
2016-07-23T10:44:34.808Z,29.41
2016-07-23T10:45:34.816Z,29.8
2016-07-23T10:46:34.824Z,29.7
2016-07-23T10:47:34.831Z,29.8
2016-07-23T10:48:34.843Z,30.19
2016-07-23T10:49:34.855Z,30.09
2016-07-23T10:50:34.862Z,29.8
2016-07-23T10:51:34.872Z,29.7
2016-07-23T10:52:34.875Z,29.5
2016-07-23T10:53:34.886Z,29.8
2016-07-23T10:54:34.896Z,29.41
2016-07-23T10:55:34.903Z,29.02
2016-07-23T10:56:34.921Z,28.74
2016-07-23T10:57:34.920Z,28.74
2016-07-23T10:58:34.931Z,28.64
2016-07-23T10:59:34.943Z,28.64
2016-07-23T11:00:34.950Z,27.95
2016-07-23T11:01:34.968Z,28.25
2016-07-23T11:02:34.966Z,28.15
2016-07-23T11:03:34.978Z,27.76
2016-07-23T11:04:34.987Z,27.95
2016-07-23T11:05:34.991Z,28.05
2016-07-23T11:06:35.003Z,28.05
2016-07-23T11:07:35.013Z,27.56
2016-07-23T11:09:36.532Z,27.87
2016-07-23T11:10:35.873Z,27.77
2016-07-23T11:11:35.047Z,27.77
2016-07-23T11:12:35.057Z,27.87
2016-07-23T11:13:35.070Z,27.77
2016-07-23T11:14:35.356Z,27.67
2016-07-23T11:15:35.084Z,28.05
2016-07-23T11:16:35.092Z,28.25
2016-07-23T11:17:35.102Z,28.05
2016-07-23T11:18:35.113Z,28.14
2016-07-23T11:19:35.122Z,28.04
2016-07-23T11:20:35.840Z,28.23
2016-07-23T11:21:35.140Z,28.23
2016-07-23T11:22:35.146Z,28.14
2016-07-23T11:23:35.733Z,27.94
2016-07-23T11:24:35.166Z,28.04
2016-07-23T11:25:35.176Z,27.84
2016-07-23T11:26:35.183Z,27.84
2016-07-23T11:27:35.190Z,27.65
2016-07-23T11:28:35.203Z,27.55
2016-07-23T11:29:35.209Z,27.36
2016-07-23T11:30:35.216Z,27.84
2016-07-23T11:31:35.229Z,27.55
2016-07-23T11:32:35.235Z,26.97
2016-07-23T11:33:35.244Z,27.08
2016-07-23T11:34:35.252Z,26.97
2016-07-23T11:35:50.483Z,26.97
2016-07-23T11:36:35.270Z,27.36
2016-07-23T11:37:35.329Z,27.54
2016-07-23T11:38:35.288Z,27.93
2016-07-23T11:39:35.296Z,28.01
2016-07-23T11:40:35.304Z,27.93
2016-07-23T11:41:35.317Z,28.03
2016-07-23T11:42:35.827Z,28.14
2016-07-23T11:44:35.894Z,27.94
2016-07-23T11:45:35.351Z,27.65
2016-07-23T11:46:35.913Z,27.65
2016-07-23T11:47:35.371Z,28.04
2016-07-23T11:48:35.427Z,27.86
2016-07-23T11:49:35.388Z,27.95
2016-07-23T11:50:35.395Z,28.34
2016-07-23T11:51:35.406Z,27.56
2016-07-23T11:52:35.414Z,27.37
2016-07-23T11:53:35.421Z,27.37
2016-07-23T11:54:35.429Z,27.37
2016-07-23T11:55:35.441Z,27.08
2016-07-23T11:56:35.452Z,26.68
2016-07-23T11:57:35.461Z,27.76
2016-07-23T11:58:35.468Z,27.75
2016-07-23T11:59:35.473Z,27.84
2016-07-23T12:00:35.487Z,27.84
2016-07-23T12:01:35.496Z,28.03
2016-07-23T12:02:35.504Z,28.91
2016-07-23T12:03:35.512Z,28.71
2016-07-23T12:04:35.523Z,28.61
2016-07-23T12:05:35.533Z,28.71
2016-07-23T12:06:35.543Z,28.92
2016-07-23T12:07:35.553Z,28.23
2016-07-23T12:08:35.555Z,28.14
2016-07-23T12:09:35.571Z,28.04
2016-07-23T12:10:35.574Z,28.04
2016-07-23T12:11:35.587Z,26.87
2016-07-23T12:12:35.597Z,26.38
2016-07-23T12:13:35.602Z,26.87
2016-07-23T12:14:35.612Z,26.27
2016-07-23T12:15:35.623Z,26.27
2016-07-23T12:16:35.629Z,26.07
2016-07-23T12:17:35.641Z,25.98
2016-07-23T12:18:35.645Z,25.29
2016-07-23T12:19:35.658Z,25.39
2016-07-23T12:20:35.664Z,26.17
2016-07-23T12:21:35.670Z,26.07
2016-07-23T12:22:35.683Z,26.46
2016-07-23T12:23:35.688Z,26.76
2016-07-23T12:24:35.698Z,26.66
2016-07-23T12:25:35.711Z,26.57
2016-07-23T12:26:35.715Z,26.28
2016-07-23T12:27:35.721Z,25.99
2016-07-23T12:28:35.732Z,26.28
2016-07-23T12:29:37.159Z,25.32
2016-07-23T12:30:35.799Z,25.81
2016-07-23T12:31:35.998Z,25.42
2016-07-23T12:32:35.774Z,25.02
2016-07-23T12:33:35.778Z,25.04
2016-07-23T12:34:35.788Z,24.84
2016-07-23T12:35:35.799Z,25.13
2016-07-23T12:36:37.326Z,25.23
2016-07-23T12:37:36.722Z,24.84
2016-07-23T12:38:35.822Z,25.04
2016-07-23T12:39:35.837Z,25.23
2016-07-23T12:40:35.842Z,25.82
2016-07-23T12:41:36.168Z,25.92
2016-07-23T12:42:35.860Z,26.11
2016-07-23T12:43:35.867Z,25.92
2016-07-23T12:44:35.883Z,25.92
2016-07-23T12:45:35.886Z,26.99
2016-07-23T12:46:35.895Z,26.11
2016-07-23T12:47:35.905Z,25.92
2016-07-23T12:48:35.931Z,25.81
2016-07-23T12:49:35.920Z,26.1
2016-07-23T12:50:35.932Z,26.09
2016-07-23T12:51:50.862Z,25.88
2016-07-23T12:53:36.357Z,25.78
2016-07-23T12:54:36.172Z,25.59
2016-07-23T12:55:35.981Z,26.07
2016-07-23T12:56:35.988Z,25.98
2016-07-23T12:57:35.993Z,26.27
2016-07-23T12:58:36.004Z,26.46
2016-07-23T12:59:36.011Z,25.89
2016-07-23T13:00:36.026Z,26.48
2016-07-23T13:01:36.033Z,26.57
2016-07-23T13:02:36.142Z,26.38
2016-07-23T13:03:36.301Z,25.9
2016-07-23T13:04:36.062Z,25.42
2016-07-23T13:05:36.365Z,24.93
2016-07-23T13:06:36.482Z,24.64
2016-07-23T13:07:36.086Z,24.74